METAR rapporten vliegvelden

   
EHAM - Amsterdam
Gewijzigd: 14-12-2018 10:25
Licht bewolkt  
Licht bewolkt  
   Wind: ONO 13 km/h
Wind: ONO 13 km/h
Temperatuur: 2°C
Voelt als: -2°C
Dauwpunt: 0°C
Vochtigheid: 87%
Barometer: 1024 hPa
Bewolking: Licht bewolkt
Zicht: meer dan 10 km
Bewolking: Licht bewolkt 1000 ft
EHAM 140925Z 07007KT 9999 FEW010 02/M00 Q1024 NOSIG
EHBK - Maastricht
Gewijzigd: 14-12-2018 10:25
Bewolking  
Bewolking  
   Wind: varieert 7.4 km/h
Wind: varieert 7.4 km/h
Temperatuur: 1°C
Voelt als: -1°C
Dauwpunt: -4°C
Vochtigheid: 70%
Barometer: 1022 hPa
Bewolking: Bewolking
Zicht: meer dan 10 km
Bewolking: Gedeeltelijk bewolkt 3200 ft,
Bewolking 3600 ft
EHBK 140925Z AUTO VRB04KT 9999 SCT032 OVC036 01/M04 Q1022 NOSIG
ELLX - Luxemburg
Gewijzigd: 14-12-2018 10:20
Grotendeels bewolkt  
Grotendeels bewolkt  
   Wind: ONO 18.5 km/h
Wind: ONO 18.5 km/h
Temperatuur: -1°C
Voelt als: -6°C
Dauwpunt: -6°C
Vochtigheid: 69%
Barometer: 1019 hPa
Bewolking: Grotendeels bewolkt
Zicht: meer dan 10 km
Bewolking: Grotendeels bewolkt 2600 ft
ELLX 140920Z 06010KT 9999 BKN026 M01/M06 Q1019 NOSIG
EDDL - Dusseldorf
Gewijzigd: 14-12-2018 10:50
Bewolking  
Bewolking  
   Wind: ONO 11.1 km/h
Wind: ONO 11.1 km/h
Temperatuur: 2°C
Voelt als: -1°C
Dauwpunt: -2°C
Vochtigheid: 75%
Barometer: 1023 hPa
Bewolking: Bewolking
Zicht: meer dan 10 km
Bewolking: Bewolking 3800 ft
EDDL 140950Z 06006KT 9999 OVC038 02/M02 Q1023 NOSIG
  

Script ontwikkeld door  Saratoga-weather.org Aangepast voor de template door  Weerstation Leuven